Airfield :
LOGIN :

Register | Disclaimer

   EN    FR    IT 

 










Legend :    VFR   Marginal VFR   IFR   Intensive IFR   Very Intensive IFR
Visi :
Ceiling :
>= 8 km
>= 3000ft
5 to 8 km
1000 to 3000 ft
1500m to 5 km
500 to 1000 ft
800 to 1500m
200 to 500 ft
< 800m
< 200 ft
Symbols :   Thunderstorms  Fog  Heavy snow  Heavy precipitations  Wind > 20 kt
SIGMETs :     Misc.  Thunderstorms  Icing  Turbulence  Mountain Waves  Volcanic Ashes






- Airport Elevation : 1213 ft
- IATA code : SCQ


LEST - Santiago de Compostela

CURRENT METAR :
  • 162000Z 24007KT 160V280 4000 -RA SCT001 OVC003 16/16 Q1012 TEMPO 1500 RA

EXPIRED METARs :
  • 161930Z 23005KT 190V280 7000 -RA SCT001 BKN003 15/15 Q1012 TEMPO 1500 RA
  • 161900Z 21007KT 170V250 8000 -RA SCT003 BKN005 15/15 Q1012 TEMPO 1500 RA
  • 161830Z 23008KT 180V270 5000 -RA SCT003 BKN004 OVC010 15/15 Q1012 TEMPO 1500 RA
  • 161800Z 22004KT 160V290 3500 RA SCT003 BKN004 OVC010 15/15 Q1011 NOSIG
  • 161730Z 21004KT 150V270 2000 RA SCT003 BKN005 OVC010 15/15 Q1011 NOSIG

TAF TAF LEST
Valid from the 16 at 18:00 until the 17 at 18:00 UTC


161700Z 1618/1718 23008KT 3000 -RA BR SCT005 BKN015 TX15/1715Z TN11/1706Z
PROB30
TEMPO 1618/1620 22015G25KT
TEMPO 1618/1706 0800 RADZ BKN005
TEMPO 1618/1620 +RA
PROB40
TEMPO 1622/1706 0350 BCFG
BECMG 1707/1710 6000 NSW
PROB40
TEMPO 1710/1712 3000 -RADZ BR



MET'MAP, your aeronautical weather chart ! - Copyright ORBIFLY December 2007 - Disclaimer

ORBIFLY MET'MAP TEAM :

Programming & Development : Alexandra Zaïnal
Concept & Development : Baudouin d'Aumeries
Co-Development & Prog : Marc-Olivier Méhu
Technical & hardware support : Manuel Goepfert

Contact : metmap@orbifly.com




SOURCES & CREDITS :

   NOAA